WetterOnline ( https://www.wetteronline.at )

Wetter aktuell List

Aktuelles Wetter: List/Sylt (29m)

6-stündlich | Neueste Meldungen
Ortszeit Temperatur Wetter
So, 25.08. 8:00 17.9° C leicht bewölkt
So, 25.08. 2:00 18.4° C wolkenlos
Sa, 24.08. 20:00 22.0° C wolkenlos
Sa, 24.08. 14:00 25.3° C wolkenlos
Sa, 24.08. 8:00 16.7° C wolkenlos
Sa, 24.08. 2:00 17.4° C wolkig
Fr, 23.08. 20:00 18.7° C fast wolkenlos
Fr, 23.08. 14:00 20.6° C leicht bewölkt
Ortszeit Temperatur Wetter
So, 25.08. 12:00 23.7° C leicht bewölkt
So, 25.08. 11:50 23.7° C leicht bewölkt
So, 25.08. 11:40 23.6° C leicht bewölkt
So, 25.08. 11:30 22.9° C wolkenlos
So, 25.08. 11:20 22.9° C wolkenlos
So, 25.08. 11:10 22.5° C wolkenlos
So, 25.08. 11:00 22.5° C wolkenlos
So, 25.08. 10:30 21.2° C leicht bewölkt
So, 25.08. 10:00 20.7° C leicht bewölkt
So, 25.08. 9:30 19.5° C wolkig
So, 25.08. 9:00 19.0° C leicht bewölkt
Ortszeit Relative Feuchte Sichtweite
So, 25.08. 8:00 88% 14 km
So, 25.08. 2:00 85% 30 km
Sa, 24.08. 20:00 60% 50 km
Sa, 24.08. 14:00 55% 55 km
Sa, 24.08. 8:00 87% 40 km
Sa, 24.08. 2:00 92% 27 km
Fr, 23.08. 20:00 84% 30 km
Fr, 23.08. 14:00 75% 40 km
Ortszeit Relative Feuchte Sichtweite
So, 25.08. 12:00 65% 30 km
So, 25.08. 11:50 65% -
So, 25.08. 11:40 67% -
So, 25.08. 11:30 68% 45 km
So, 25.08. 11:20 68% -
So, 25.08. 11:10 70% -
So, 25.08. 11:00 71% 40 km
So, 25.08. 10:30 75% 30 km
So, 25.08. 10:00 79% 26 km
So, 25.08. 9:30 82% 28 km
So, 25.08. 9:00 84% 20 km
Ortszeit Niederschlagsmenge Niederschlagsart
So, 25.08. 8:00 0.0 l/m2 in 12 Std. -
So, 25.08. 2:00 0.0 l/m2 in 6 Std. -
Sa, 24.08. 20:00 0.0 l/m2 in 12 Std. -
Sa, 24.08. 14:00 0.0 l/m2 in 6 Std. -
Sa, 24.08. 8:00 0.0 l/m2 in 12 Std. -
Sa, 24.08. 2:00 0.0 l/m2 in 6 Std. -
Fr, 23.08. 20:00 0.0 l/m2 in 12 Std. -
Fr, 23.08. 14:00 0.0 l/m2 in 6 Std. -
Ortszeit Niederschlagsmenge Niederschlagsart
So, 25.08. 12:00 0.0 l/m2 in 1 Std. -
So, 25.08. 11:50 keine Meldung -
So, 25.08. 11:40 keine Meldung -
So, 25.08. 11:30 0.0 l/m2 in 1 Std. -
So, 25.08. 11:20 keine Meldung -
So, 25.08. 11:10 keine Meldung -
So, 25.08. 11:00 0.0 l/m2 in 1 Std. -
So, 25.08. 10:30 0.0 l/m2 in 1 Std. -
So, 25.08. 10:00 0.0 l/m2 in 1 Std. -
So, 25.08. 9:30 0.0 l/m2 in 1 Std. -
So, 25.08. 9:00 0.0 l/m2 in 1 Std. -
Ortszeit Stärke Spitze Richtung
km/h Bft. km/h Grad Sektor
So, 25.08. 8:00 14 3 36 110° O
So, 25.08. 2:00 22 4 33 100° O
Sa, 24.08. 20:00 28 4 33 110° O
Sa, 24.08. 14:00 13 3 24 120° SO
Sa, 24.08. 8:00 15 3 20 110° O
Sa, 24.08. 2:00 4 1 18 180° S
Fr, 23.08. 20:00 13 3 37 250° W
Fr, 23.08. 14:00 28 4 44 240° SW
Ortszeit Stärke Spitze Richtung
km/h Bft. km/h Grad Sektor
So, 25.08. 12:00 11 2 18 110° O
So, 25.08. 11:50 11 2 - 110° O
So, 25.08. 11:40 13 3 - 110° O
So, 25.08. 11:30 13 3 19 120° SO
So, 25.08. 11:20 13 3 - 120° SO
So, 25.08. 11:10 13 3 - 110° O
So, 25.08. 11:00 14 3 22 110° O
So, 25.08. 10:30 13 3 19 110° O
So, 25.08. 10:00 11 2 22 110° O
So, 25.08. 9:30 17 3 20 110° O
So, 25.08. 9:00 18 3 25 110° O
Ortszeit Untergrenze Bedeckung Gattung
total tief tief mittel hoch
So, 25.08. 8:00 10500 m 8/8 0/8 - - -
So, 25.08. 2:00 - 0/8 0/8 - - -
Sa, 24.08. 20:00 10500 m 0/8 0/8 - - -
Sa, 24.08. 14:00 12000 m 0/8 0/8 - - -
Sa, 24.08. 8:00 - 0/8 0/8 - - -
Sa, 24.08. 2:00 10500 m 8/8 0/8 - - -
Fr, 23.08. 20:00 240 m 1/8 1/8 - - -
Fr, 23.08. 14:00 330 m 3/8 3/8 - - -
Ortszeit Bedeckungsgrad in Achtel und Wolkenuntergrenze
So, 25.08. 12:00 5(10500m)
So, 25.08. 11:50 5(10500m)
So, 25.08. 11:40 3(10500m)
So, 25.08. 11:30 keine Wolken
So, 25.08. 11:20 keine Wolken
So, 25.08. 11:10 keine Wolken
So, 25.08. 11:00 keine Wolken
So, 25.08. 10:30 4(10500m)
So, 25.08. 10:00 7(10500m)
So, 25.08. 9:30 8(10500m) 8(10500m)
So, 25.08. 9:00 5(10500m) 7(10500m)
Ortszeit Luftdruck NN (hPa) Tendenz (hPa in 3 Std.)
So, 25.08. 8:00 1022 0,0
So, 25.08. 2:00 1022 - 0,7
Sa, 24.08. 20:00 1023 - 0,9
Sa, 24.08. 14:00 1025 - 1,2
Sa, 24.08. 8:00 1026 0,0
Sa, 24.08. 2:00 1026 + 0,1
Fr, 23.08. 20:00 1026 - 0,1
Fr, 23.08. 14:00 1026 + 0,7
Ortszeit Luftdruck NN (hPa) Tendenz (hPa in 3 Std.)
So, 25.08. 12:00 1022 + 0,3
So, 25.08. 11:50 1022 keine Meldung
So, 25.08. 11:40 1022 keine Meldung
So, 25.08. 11:30 1022 + 0,5
So, 25.08. 11:20 1022 keine Meldung
So, 25.08. 11:10 1023 keine Meldung
So, 25.08. 11:00 1023 + 0,9
So, 25.08. 10:30 1023 + 0,7
So, 25.08. 10:00 1022 + 0,6
So, 25.08. 9:30 1022 + 0,3
So, 25.08. 9:00 1022 + 0,2
Ortszeit Schneehöhe (cm)
So, 25.08. 8:00 0
So, 25.08. 2:00 0
Sa, 24.08. 20:00 0
Sa, 24.08. 14:00 0
Sa, 24.08. 8:00 0
Sa, 24.08. 2:00 0
Fr, 23.08. 20:00 0
Fr, 23.08. 14:00 0
Ortszeit Schneehöhe (cm)
So, 25.08. 12:00 0
So, 25.08. 11:50 0
So, 25.08. 11:40 0
So, 25.08. 11:30 0
So, 25.08. 11:20 0
So, 25.08. 11:10 0
So, 25.08. 11:00 0
So, 25.08. 10:30 0
So, 25.08. 10:00 0
So, 25.08. 9:30 0
So, 25.08. 9:00 0
Link zu dieser Seite / Seite empfehlen

Das Wetter in ...